Terminal Aerodrome Forecast
Issued by NWS Charleston, SC

Current Version | Previous Version | Text Only | Print | Product List | Glossary On
Versions: 1 2 3 4 5 6 7 8 9 10 11 12 13
000
FTUS42 KCHS 291133
TAFSAV
TAF
KSAV 291133Z 2912/3012 00000KT P6SM SCT250
     FM291400 09005KT P6SM SCT250
     FM291700 16007KT P6SM SCT250
     FM300400 22008KT P6SM BKN150
     FM300900 25009KT P6SM SCT020 BKN040=

USA.gov is the U.S. government's official web portal to all federal, state and local government web resources and services.